Time;durP1;ratioP1;P1;durP2;ratioP2;P2;SDS_P1;SDS_P2;PMS_P1;PMS_P2;Temp;Humidity;BMP_temperature;BMP_pressure;BME280_temperature;BME280_humidity;BME280_pressure;Samples;Min_cycle;Max_cycle;Signal;HPM_P1;HPM_P2
2022/06/24 00:02:16;;;;;;;2.58;1.40;;;;;;;13.44;100.00;99744.06;4975286;28;20381;-81
2022/06/24 00:05:01;;;;;;;3.10;1.45;;;;;;;13.46;100.00;99751.97;4971433;28;20034;-81
2022/06/24 00:07:27;;;;;;;4.72;1.60;;;;;;;13.41;100.00;99745.31;4958099;28;20388;-82
2022/06/24 00:09:53;;;;;;;3.15;1.90;;;;;;;13.47;100.00;99743.66;4960360;28;20535;-79
2022/06/24 00:12:21;;;;;;;3.72;1.50;;;;;;;13.50;100.00;99736.97;4972959;28;20048;-82
2022/06/24 00:14:58;;;;;;;6.70;1.73;;;;;;;13.50;100.00;99732.41;4971142;28;20034;-78
2022/06/24 00:17:27;;;;;;;3.72;1.67;;;;;;;13.48;100.00;99715.59;4993258;28;20050;-79
2022/06/24 00:19:52;;;;;;;3.35;1.73;;;;;;;13.54;100.00;99728.19;4956156;28;20031;-77
2022/06/24 00:22:19;;;;;;;3.55;1.83;;;;;;;13.52;100.00;99726.75;4977045;28;20522;-79
2022/06/24 00:24:44;;;;;;;5.60;1.58;;;;;;;13.48;100.00;99723.69;4984399;28;20038;-80
2022/06/24 00:27:22;;;;;;;2.72;1.70;;;;;;;13.47;100.00;99713.94;4975347;28;20034;-81
2022/06/24 00:29:49;;;;;;;3.05;1.85;;;;;;;13.48;100.00;99717.47;4983671;28;20038;-78
2022/06/24 00:32:15;;;;;;;3.92;2.10;;;;;;;13.41;100.00;99704.81;4986704;28;20026;-81
2022/06/24 00:34:41;;;;;;;3.80;2.10;;;;;;;13.33;100.00;99686.19;4973281;28;20027;-84
2022/06/24 00:37:27;;;;;;;3.20;2.03;;;;;;;13.39;100.00;99695.31;4968698;28;20049;-82
2022/06/24 00:40:13;;;;;;;4.97;2.40;;;;;;;13.35;100.00;99694.91;4959436;28;20372;-82
2022/06/24 00:42:42;;;;;;;3.70;2.13;;;;;;;13.32;100.00;99684.56;4977470;28;20500;-80
2022/06/24 00:45:11;;;;;;;4.10;2.08;;;;;;;13.31;100.00;99693.72;4987295;28;20567;-80
2022/06/24 00:47:37;;;;;;;3.40;1.70;;;;;;;13.29;100.00;99684.19;4989902;28;20037;-79
2022/06/24 00:50:11;;;;;;;3.70;1.73;;;;;;;13.30;100.00;99686.66;4991646;28;20349;-78
2022/06/24 00:52:37;;;;;;;3.90;1.60;;;;;;;13.32;100.00;99676.47;4989358;28;20476;-80
2022/06/24 00:55:03;;;;;;;3.28;2.13;;;;;;;13.39;100.00;99676.41;4991734;28;20037;-79
2022/06/24 00:57:36;;;;;;;4.05;2.13;;;;;;;13.42;100.00;99675.97;4973397;28;20037;-80
2022/06/24 01:00:05;;;;;;;3.75;2.00;;;;;;;13.43;100.00;99672.22;4952540;28;20503;-80
2022/06/24 01:02:32;;;;;;;2.97;1.80;;;;;;;13.49;100.00;99679.41;4970558;28;20489;-81
2022/06/24 01:05:05;;;;;;;5.75;1.83;;;;;;;13.52;100.00;99668.19;4990352;28;20034;-81
2022/06/24 01:07:36;;;;;;;2.88;1.73;;;;;;;13.55;100.00;99664.22;4992130;28;20472;-80
2022/06/24 01:10:02;;;;;;;3.70;1.75;;;;;;;13.52;100.00;99660.09;4952677;28;20149;-80
2022/06/24 01:12:30;;;;;;;3.17;1.50;;;;;;;13.54;100.00;99659.84;4992668;28;20463;-81
2022/06/24 01:14:56;;;;;;;4.93;1.80;;;;;;;13.56;100.00;99657.78;4966922;28;20500;-82
2022/06/24 01:17:21;;;;;;;5.00;1.80;;;;;;;13.54;100.00;99651.75;4988201;28;20038;-78
2022/06/24 01:19:47;;;;;;;2.85;1.58;;;;;;;13.51;100.00;99646.81;4984971;28;20109;-81
2022/06/24 01:22:20;;;;;;;3.40;1.90;;;;;;;13.45;100.00;99642.31;4989293;28;20063;-82
2022/06/24 01:24:48;;;;;;;3.35;1.52;;;;;;;13.38;100.00;99643.16;4973894;28;20117;-79
2022/06/24 01:27:14;;;;;;;3.78;1.90;;;;;;;13.37;100.00;99640.72;4963557;28;20037;-79
2022/06/24 01:29:40;;;;;;;3.55;2.05;;;;;;;13.32;100.00;99632.44;4971245;28;20041;-81
2022/06/24 01:32:06;;;;;;;4.53;2.17;;;;;;;13.31;100.00;99633.47;4969759;28;20034;-81
2022/06/24 01:34:32;;;;;;;2.30;1.70;;;;;;;13.31;100.00;99628.06;4972974;28;20042;-83
2022/06/24 01:36:57;;;;;;;3.47;1.88;;;;;;;13.28;100.00;99623.13;4983868;28;20104;-82
2022/06/24 01:39:23;;;;;;;4.50;2.30;;;;;;;13.32;100.00;99637.84;4957667;28;20038;-80
2022/06/24 01:41:54;;;;;;;4.18;2.00;;;;;;;13.28;100.00;99626.63;4965191;28;20119;-80
2022/06/24 01:44:22;;;;;;;2.67;1.80;;;;;;;13.32;100.00;99638.66;4990398;28;20037;-82
2022/06/24 01:46:48;;;;;;;2.92;1.80;;;;;;;13.29;100.00;99636.41;4968858;28;20392;-79
2022/06/24 01:49:14;;;;;;;4.60;1.90;;;;;;;13.16;100.00;99626.50;4950734;28;20050;-79
2022/06/24 01:51:43;;;;;;;3.25;1.92;;;;;;;13.09;100.00;99630.31;4982275;28;20030;-80
2022/06/24 01:54:09;;;;;;;2.65;1.70;;;;;;;13.03;100.00;99623.09;4959806;28;20035;-79
2022/06/24 01:56:34;;;;;;;4.43;1.67;;;;;;;12.91;100.00;99621.13;4979907;28;20049;-78
2022/06/24 01:59:00;;;;;;;4.57;2.08;;;;;;;12.88;100.00;99616.13;4985842;28;20032;-81
2022/06/24 02:01:26;;;;;;;4.20;2.35;;;;;;;12.75;100.00;99600.91;4966698;28;20042;-80
2022/06/24 02:03:52;;;;;;;2.85;1.98;;;;;;;12.70;100.00;99595.34;4972596;28;20490;-79
2022/06/24 02:06:18;;;;;;;4.30;2.35;;;;;;;12.62;100.00;99589.34;4986334;28;20319;-80
2022/06/24 02:08:44;;;;;;;4.13;2.58;;;;;;;12.67;100.00;99603.84;4970426;28;20030;-79
2022/06/24 02:13:56;;;;;;;3.80;2.28;;;;;;;12.44;100.00;99579.31;4995168;28;20543;-80
2022/06/24 02:16:22;;;;;;;5.07;2.05;;;;;;;12.28;100.00;99569.88;4967345;28;20034;-81
2022/06/24 02:18:48;;;;;;;3.38;2.10;;;;;;;12.18;100.00;99564.13;4984604;28;20046;-79
2022/06/24 02:21:14;;;;;;;3.28;2.00;;;;;;;12.08;100.00;99556.50;4967089;28;20034;-80
2022/06/24 02:23:41;;;;;;;2.97;2.20;;;;;;;12.02;100.00;99568.16;4986764;28;20049;-79
2022/06/24 02:26:07;;;;;;;4.68;2.10;;;;;;;11.95;100.00;99557.38;4967311;28;20037;-80
2022/06/24 02:28:35;;;;;;;6.43;2.55;;;;;;;11.87;100.00;99544.97;4985220;28;20072;-79
2022/06/24 02:31:01;;;;;;;4.72;2.50;;;;;;;11.78;100.00;99540.03;4970634;28;20039;-80
2022/06/24 02:33:28;;;;;;;3.78;2.13;;;;;;;11.76;100.00;99534.84;4986114;28;20037;-78
2022/06/24 02:35:54;;;;;;;3.53;2.50;;;;;;;11.79;100.00;99526.34;4986146;28;20080;-81
2022/06/24 02:38:19;;;;;;;3.50;2.40;;;;;;;11.83;100.00;99527.59;4980943;28;20442;-80
2022/06/24 02:40:45;;;;;;;4.80;2.65;;;;;;;11.87;100.00;99523.44;4983607;28;20050;-80
2022/06/24 02:43:25;;;;;;;3.67;2.42;;;;;;;11.92;100.00;99516.59;4971965;28;20058;-79
2022/06/24 02:45:57;;;;;;;4.82;3.17;;;;;;;11.93;100.00;99526.31;4973075;28;20046;-80
2022/06/24 02:48:23;;;;;;;5.22;3.22;;;;;;;11.86;100.00;99526.34;4972382;28;20034;-79
2022/06/24 02:50:51;;;;;;;6.25;3.50;;;;;;;11.91;100.00;99531.94;4982227;28;20384;-79
2022/06/24 02:53:18;;;;;;;5.90;3.60;;;;;;;11.93;100.00;99535.22;4973090;28;20023;-79
2022/06/24 02:55:45;;;;;;;5.85;3.50;;;;;;;11.98;100.00;99531.88;4984001;28;20077;-79
2022/06/24 02:58:11;;;;;;;4.57;3.08;;;;;;;11.96;100.00;99518.66;4971270;28;20053;-82
2022/06/24 03:00:39;;;;;;;4.75;2.88;;;;;;;12.03;100.00;99526.69;4964454;28;20045;-80
2022/06/24 03:03:06;;;;;;;6.15;3.83;;;;;;;12.03;100.00;99514.03;4986630;28;20046;-79
2022/06/24 03:05:32;;;;;;;7.15;3.20;;;;;;;12.07;100.00;99509.88;4970468;28;20036;-78
2022/06/24 03:07:58;;;;;;;5.03;3.50;;;;;;;12.10;100.00;99519.41;4989271;28;20304;-81
2022/06/24 03:10:24;;;;;;;5.97;3.05;;;;;;;12.12;100.00;99511.94;4969217;28;20037;-81
2022/06/24 03:12:49;;;;;;;6.53;3.70;;;;;;;11.81;100.00;99462.31;4966989;28;20038;-82
2022/06/24 03:15:15;;;;;;;7.28;4.03;;;;;;;12.10;100.00;99501.34;4986275;28;20039;-78
2022/06/24 03:17:41;;;;;;;6.68;3.78;;;;;;;12.15;100.00;99513.38;4968100;28;20044;-79
2022/06/24 03:20:09;;;;;;;4.68;3.00;;;;;;;12.12;100.00;99501.16;4965223;28;20033;-81
2022/06/24 03:22:36;;;;;;;6.22;3.45;;;;;;;12.13;100.00;99507.34;4953506;28;20034;-81
2022/06/24 03:25:03;;;;;;;10.75;3.45;;;;;;;12.07;100.00;99495.59;4982870;28;20026;-80
2022/06/24 03:27:29;;;;;;;4.80;3.08;;;;;;;12.09;100.00;99498.88;4945224;28;20034;-79
2022/06/24 03:29:54;;;;;;;5.00;2.95;;;;;;;12.09;100.00;99490.78;4963080;28;20037;-79
2022/06/24 03:32:20;;;;;;;5.18;3.25;;;;;;;12.08;100.00;99486.44;4999727;28;20384;-82
2022/06/24 03:34:47;;;;;;;5.47;2.78;;;;;;;12.06;100.00;99483.97;4973114;28;20515;-79
2022/06/24 03:37:12;;;;;;;5.00;2.60;;;;;;;12.08;100.00;99481.88;5004395;28;20034;-79
2022/06/24 03:39:38;;;;;;;4.50;2.42;;;;;;;12.12;100.00;99476.06;4971828;28;20034;-79
2022/06/24 03:42:04;;;;;;;6.45;2.42;;;;;;;12.13;100.00;99472.34;4961633;28;20472;-81
2022/06/24 03:44:30;;;;;;;3.60;2.47;;;;;;;12.15;100.00;99463.00;4983201;28;20097;-81
2022/06/24 03:46:56;;;;;;;5.28;2.55;;;;;;;12.12;100.00;99458.03;4969009;28;20053;-79
2022/06/24 03:49:21;;;;;;;3.22;2.13;;;;;;;12.15;100.00;99454.91;4986215;28;20452;-80
2022/06/24 03:51:47;;;;;;;4.20;2.20;;;;;;;12.11;100.00;99440.19;4982081;28;20042;-83
2022/06/24 03:54:13;;;;;;;3.53;2.22;;;;;;;12.17;100.00;99450.13;4958713;28;20125;-81
2022/06/24 03:56:39;;;;;;;5.93;2.15;;;;;;;12.13;100.00;99443.50;4981731;28;20034;-81
2022/06/24 03:59:05;;;;;;;3.85;2.30;;;;;;;12.17;100.00;99446.59;4983294;28;20073;-79
2022/06/24 04:01:31;;;;;;;3.63;1.95;;;;;;;12.20;100.00;99447.00;4952670;28;20038;-79
2022/06/24 04:03:56;;;;;;;5.65;2.45;;;;;;;12.22;100.00;99446.75;4973034;28;20208;-79
2022/06/24 04:06:22;;;;;;;3.78;2.25;;;;;;;12.20;100.00;99447.00;4963466;28;20037;-78
2022/06/24 04:08:48;;;;;;;4.97;2.65;;;;;;;12.24;100.00;99448.19;4971381;28;20562;-80
2022/06/24 04:11:15;;;;;;;4.53;2.28;;;;;;;12.19;100.00;99434.53;4964979;28;20034;-82
2022/06/24 04:13:41;;;;;;;4.28;2.75;;;;;;;12.26;100.00;99442.59;4952720;28;20039;-80
2022/06/24 04:16:07;;;;;;;5.03;3.00;;;;;;;12.23;100.00;99435.78;4965413;28;20101;-79
2022/06/24 04:18:33;;;;;;;5.78;2.85;;;;;;;12.31;100.00;99434.69;4985390;28;20113;-80
2022/06/24 04:20:59;;;;;;;4.82;2.60;;;;;;;12.35;100.00;99437.75;4988439;28;20209;-82
2022/06/24 04:23:25;;;;;;;4.55;2.97;;;;;;;12.40;100.00;99433.34;4981516;28;20476;-79
2022/06/24 04:25:50;;;;;;;6.60;3.45;;;;;;;12.45;100.00;99441.59;4954991;28;20031;-80
2022/06/24 04:28:16;;;;;;;5.32;2.90;;;;;;;12.33;100.00;99416.38;4987902;28;20034;-80
2022/06/24 04:30:42;;;;;;;5.88;3.05;;;;;;;12.43;100.00;99424.00;4963073;28;20124;-78
2022/06/24 04:33:08;;;;;;;5.32;3.35;;;;;;;12.41;100.00;99426.94;4970264;28;20431;-78
2022/06/24 04:35:34;;;;;;;5.07;3.00;;;;;;;12.41;100.00;99420.69;4983702;28;20109;-78
2022/06/24 04:37:59;;;;;;;5.03;3.20;;;;;;;12.40;100.00;99413.66;4986299;28;20121;-80
2022/06/24 04:40:25;;;;;;;6.95;3.53;;;;;;;12.35;100.00;99405.41;4969708;28;20034;-80
2022/06/24 04:42:51;;;;;;;7.20;3.33;;;;;;;12.37;100.00;99404.13;4971744;28;20034;-82
2022/06/24 04:45:17;;;;;;;5.20;2.85;;;;;;;12.44;100.00;99415.69;4972977;28;20030;-82
2022/06/24 04:47:42;;;;;;;4.82;2.78;;;;;;;12.47;100.00;99406.34;4970382;28;20046;-81
2022/06/24 04:50:09;;;;;;;4.22;2.55;;;;;;;12.48;100.00;99406.09;4975991;28;20042;-80
2022/06/24 04:52:35;;;;;;;5.80;2.55;;;;;;;12.50;100.00;99404.03;4962712;28;20073;-78
2022/06/24 04:55:01;;;;;;;5.13;2.53;;;;;;;12.48;100.00;99389.09;4976535;28;20030;-78
2022/06/24 04:57:27;;;;;;;3.50;2.22;;;;;;;12.49;100.00;99394.28;4990097;28;20480;-79
2022/06/24 04:59:52;;;;;;;4.03;2.47;;;;;;;12.53;100.00;99394.66;4956021;28;20113;-79
2022/06/24 05:02:18;;;;;;;4.22;2.28;;;;;;;12.52;100.00;99388.44;4986534;28;20365;-80
2022/06/24 05:04:44;;;;;;;3.45;2.30;;;;;;;12.56;100.00;99388.00;4990143;28;20034;-79
2022/06/24 05:07:10;;;;;;;6.25;2.50;;;;;;;12.54;100.00;99380.13;4971893;28;20031;-80
2022/06/24 05:09:36;;;;;;;3.97;2.47;;;;;;;12.60;100.00;99384.66;4990824;28;20121;-79
2022/06/24 05:12:02;;;;;;;4.47;2.30;;;;;;;12.59;100.00;99372.19;4953715;28;20042;-80
2022/06/24 05:14:29;;;;;;;5.75;2.60;;;;;;;12.60;100.00;99370.34;4955822;28;20125;-81
2022/06/24 05:16:58;;;;;;;6.25;2.65;;;;;;;12.64;100.00;99363.44;4975424;28;20128;-80
2022/06/24 05:19:24;;;;;;;4.32;2.60;;;;;;;12.71;100.00;99369.59;4953523;28;20117;-80
2022/06/24 05:21:50;;;;;;;4.22;2.83;;;;;;;12.72;100.00;99369.34;4954607;28;20555;-79
2022/06/24 05:24:16;;;;;;;7.38;3.10;;;;;;;12.74;100.00;99367.28;4990264;28;20364;-78
2022/06/24 05:26:42;;;;;;;6.57;3.88;;;;;;;12.67;100.00;99347.63;4975933;28;20473;-78
2022/06/24 05:29:09;;;;;;;10.05;3.22;;;;;;;12.78;100.00;99362.28;4955920;28;20045;-81
2022/06/24 05:31:34;;;;;;;5.10;2.92;;;;;;;12.83;100.00;99353.47;4967324;28;20038;-79
2022/06/24 05:34:00;;;;;;;6.13;3.13;;;;;;;12.85;100.00;99356.78;4954919;28;20043;-78
2022/06/24 05:36:25;;;;;;;3.88;2.38;;;;;;;12.85;100.00;99336.03;4959238;28;20442;-82
2022/06/24 05:38:52;;;;;;;5.65;2.60;;;;;;;12.88;100.00;99337.44;4960469;28;20034;-79
2022/06/24 05:41:18;;;;;;;3.45;2.03;;;;;;;12.88;100.00;99351.75;4967909;28;20049;-79
2022/06/24 05:43:44;;;;;;;1.33;0.82;;;;;;;12.84;100.00;99339.78;4959114;28;20034;-78
2022/06/24 05:46:10;;;;;;;0.30;0.30;;;;;;;12.82;100.00;99344.56;4973017;28;20049;-78
2022/06/24 05:48:36;;;;;;;0.40;0.40;;;;;;;12.82;100.00;99335.66;4964881;28;20030;-80
2022/06/24 05:51:09;;;;;;;1.00;0.90;;;;;;;12.82;100.00;99319.47;4966345;28;20194;-80
2022/06/24 05:56:19;;;;;;;0.30;0.30;;;;;;;12.77;100.00;99315.56;4973919;28;19929;-79
2022/06/24 05:58:45;;;;;;;0.32;0.32;;;;;;;12.81;100.00;99320.50;4992111;28;20027;-79
2022/06/24 06:01:11;;;;;;;0.30;0.30;;;;;;;12.77;100.00;99318.28;4970186;28;20060;-81
2022/06/24 06:03:37;;;;;;;0.30;0.30;;;;;;;12.79;100.00;99320.75;4974271;28;20097;-80
2022/06/24 06:06:02;;;;;;;0.30;0.30;;;;;;;12.77;100.00;99306.66;4968837;28;20042;-80
2022/06/24 06:08:28;;;;;;;0.30;0.30;;;;;;;12.80;100.00;99318.88;4970214;28;20392;-79
2022/06/24 06:10:54;;;;;;;0.30;0.30;;;;;;;12.82;100.00;99314.09;4970547;28;20054;-80
2022/06/24 06:13:19;;;;;;;0.30;0.30;;;;;;;12.82;100.00;99308.69;4983883;28;20105;-79
2022/06/24 06:15:45;;;;;;;0.30;0.30;;;;;;;12.80;100.00;99300.00;4990618;28;20074;-80
2022/06/24 06:18:11;;;;;;;0.30;0.30;;;;;;;12.80;100.00;99302.69;4972798;28;20140;-79
2022/06/24 06:20:37;;;;;;;0.98;0.95;;;;;;;12.81;100.00;99301.63;4953426;28;20486;-81
2022/06/24 06:23:04;;;;;;;0.30;0.30;;;;;;;12.85;100.00;99305.53;4951800;28;20031;-81
2022/06/24 06:25:31;;;;;;;0.32;0.32;;;;;;;12.88;100.00;99303.19;4978277;28;20038;-81
2022/06/24 06:27:57;;;;;;;0.30;0.30;;;;;;;12.90;100.00;99293.00;4983703;28;20034;-82
2022/06/24 06:30:23;;;;;;;0.30;0.30;;;;;;;12.90;100.00;99290.31;4974995;28;20388;-83
2022/06/24 06:32:52;;;;;;;0.30;0.30;;;;;;;13.00;100.00;99287.09;4984866;28;20468;-80
2022/06/24 06:35:17;;;;;;;0.30;0.30;;;;;;;13.03;100.00;99286.63;5001349;28;20043;-80
2022/06/24 06:37:43;;;;;;;0.50;0.50;;;;;;;13.16;100.00;99291.03;4969768;28;20038;-80
2022/06/24 06:40:09;;;;;;;0.30;0.30;;;;;;;13.25;100.00;99278.03;4955164;28;20578;-79
2022/06/24 06:42:35;;;;;;;0.30;0.30;;;;;;;13.34;100.00;99282.09;4977501;28;20522;-80
2022/06/24 06:45:03;;;;;;;0.30;0.30;;;;;;;13.41;100.00;99280.09;4987283;28;20042;-81
2022/06/24 06:47:29;;;;;;;0.30;0.30;;;;;;;13.32;100.00;99270.69;4953232;28;20041;-81
2022/06/24 06:49:56;;;;;;;0.30;0.30;;;;;;;13.33;100.00;99269.63;4988163;28;20124;-80
2022/06/24 06:52:22;;;;;;;0.30;0.30;;;;;;;13.40;100.00;99275.75;4988774;28;20468;-80
2022/06/24 06:54:48;;;;;;;0.30;0.30;;;;;;;13.36;100.00;99267.31;4977367;28;20044;-79
2022/06/24 06:57:13;;;;;;;0.30;0.30;;;;;;;13.38;100.00;99267.06;4964187;28;21692;-78
2022/06/24 06:59:39;;;;;;;0.30;0.30;;;;;;;13.36;100.00;99264.63;4979483;28;20076;-78
2022/06/24 07:02:05;;;;;;;0.30;0.30;;;;;;;13.35;100.00;99267.53;4959118;28;20121;-80
2022/06/24 07:04:30;;;;;;;0.30;0.30;;;;;;;13.37;100.00;99268.13;4982943;28;20081;-78
2022/06/24 07:06:56;;;;;;;0.35;0.35;;;;;;;13.42;100.00;99265.56;4949751;28;20046;-79
2022/06/24 07:09:22;;;;;;;0.30;0.30;;;;;;;13.42;100.00;99265.56;4983524;28;20101;-78
2022/06/24 07:11:47;;;;;;;0.30;0.30;;;;;;;13.41;100.00;99269.28;4980013;28;20423;-80
2022/06/24 07:14:13;;;;;;;0.30;0.30;;;;;;;13.43;100.00;99259.09;4984872;28;20037;-79
2022/06/24 07:16:42;;;;;;;0.30;0.30;;;;;;;13.50;100.00;99256.31;4964067;28;20070;-78
2022/06/24 07:19:08;;;;;;;0.30;0.30;;;;;;;13.53;100.00;99250.44;4968615;28;20057;-82
2022/06/24 07:21:35;;;;;;;0.30;0.30;;;;;;;13.56;100.00;99258.06;4963420;28;20040;-81
2022/06/24 07:24:01;;;;;;;0.30;0.30;;;;;;;13.69;100.00;99254.34;4982506;28;20034;-79
2022/06/24 07:26:27;;;;;;;0.40;0.40;;;;;;;13.70;100.00;99250.56;4986480;28;20049;-79
2022/06/24 07:28:53;;;;;;;0.30;0.30;;;;;;;13.62;100.00;99233.66;4960784;28;20069;-79
2022/06/24 07:31:19;;;;;;;0.30;0.30;;;;;;;13.59;100.00;99246.81;4998046;28;20049;-78
2022/06/24 07:33:45;;;;;;;0.30;0.30;;;;;;;13.53;100.00;99245.84;4988242;28;20154;-78
2022/06/24 07:36:11;;;;;;;0.30;0.30;;;;;;;13.41;100.00;99226.91;4963752;28;20122;-78
2022/06/24 07:38:37;;;;;;;0.30;0.30;;;;;;;13.44;100.00;99222.94;4981062;28;20126;-78
2022/06/24 07:41:03;;;;;;;0.30;0.30;;;;;;;13.56;100.00;99234.59;4967018;28;20046;-78
2022/06/24 07:43:29;;;;;;;0.30;0.30;;;;;;;13.54;100.00;99238.56;4949013;28;20500;-78
2022/06/24 07:45:55;;;;;;;0.30;0.30;;;;;;;13.53;100.00;99234.25;4967654;28;20104;-78
2022/06/24 07:48:20;;;;;;;0.30;0.30;;;;;;;13.56;100.00;99234.59;4951725;28;20050;-77
2022/06/24 07:50:46;;;;;;;0.30;0.30;;;;;;;13.61;100.00;99226.63;4979335;28;20065;-79
2022/06/24 07:53:12;;;;;;;0.30;0.30;;;;;;;13.66;100.00;99217.81;4955877;28;20133;-79
2022/06/24 07:58:22;;;;;;;0.30;0.30;;;;;;;13.66;100.00;99217.81;4986641;28;20096;-78
2022/06/24 08:00:48;;;;;;;0.30;0.30;;;;;;;13.56;100.00;99212.16;4971588;28;20054;-77
2022/06/24 08:03:16;;;;;;;0.30;0.30;;;;;;;13.63;100.00;99221.00;4986271;28;20030;-78
2022/06/24 08:05:42;;;;;;;0.30;0.30;;;;;;;13.69;100.00;99221.94;4984722;28;20038;-78
2022/06/24 08:08:09;;;;;;;0.30;0.30;;;;;;;13.64;100.00;99209.94;4969534;28;20128;-78
2022/06/24 08:10:34;;;;;;;0.30;0.30;;;;;;;13.69;100.00;99219.22;4988245;28;20045;-77
2022/06/24 08:13:00;;;;;;;0.30;0.30;;;;;;;13.79;100.00;99208.66;4982013;28;20113;-77
2022/06/24 08:15:26;;;;;;;0.30;0.30;;;;;;;13.91;100.00;99216.75;4987638;28;20503;-77
2022/06/24 08:17:55;;;;;;;0.30;0.30;;;;;;;14.03;100.00;99217.59;4971553;28;20050;-77
2022/06/24 08:20:21;;;;;;;0.30;0.30;;;;;;;14.05;100.00;99208.19;4956946;28;20181;-77
2022/06/24 08:22:49;;;;;;;0.30;0.30;;;;;;;14.22;100.00;99208.28;4956375;28;20038;-80
2022/06/24 08:25:15;;;;;;;0.30;0.30;;;;;;;14.29;100.00;99205.47;4986545;28;20030;-78
2022/06/24 08:27:41;;;;;;;0.30;0.30;;;;;;;14.26;100.00;99200.50;4991280;28;20053;-79
2022/06/24 08:30:07;;;;;;;0.30;0.30;;;;;;;14.27;100.00;99200.28;4955614;28;20042;-79
2022/06/24 08:32:33;;;;;;;0.30;0.30;;;;;;;14.33;100.00;99203.91;4984169;28;20034;-80
2022/06/24 08:34:58;;;;;;;0.30;0.30;;;;;;;14.36;100.00;99197.19;4961236;28;20050;-80
2022/06/24 08:37:24;;;;;;;1.52;1.45;;;;;;;14.35;100.00;99201.78;4974225;28;20032;-79
2022/06/24 08:39:49;;;;;;;0.30;0.30;;;;;;;14.29;100.00;99191.94;4969520;28;20042;-79
2022/06/24 08:42:16;;;;;;;0.30;0.30;;;;;;;14.27;100.00;99191.34;4974615;28;20414;-79
2022/06/24 08:44:41;;;;;;;0.30;0.30;;;;;;;14.31;100.00;99200.59;4957201;28;20054;-79
2022/06/24 08:47:13;;;;;;;0.30;0.30;;;;;;;14.41;100.00;99195.41;4994780;28;20038;-80
2022/06/24 08:49:39;;;;;;;0.30;0.30;;;;;;;14.51;100.00;99184.81;4975728;28;20031;-80
2022/06/24 08:52:05;;;;;;;0.40;0.40;;;;;;;14.47;100.00;99180.97;4991019;28;20041;-78
2022/06/24 08:54:32;;;;;;;0.30;0.30;;;;;;;14.42;100.00;99167.34;4982691;28;20027;-78
2022/06/24 08:56:58;;;;;;;0.40;0.40;;;;;;;14.62;100.00;99183.16;4957296;28;20476;-79
2022/06/24 08:59:27;;;;;;;0.40;0.40;;;;;;;14.75;100.00;99167.72;4988840;28;20041;-79
2022/06/24 09:01:53;;;;;;;0.30;0.30;;;;;;;14.79;100.00;99164.28;4959946;28;20034;-79
2022/06/24 09:04:21;;;;;;;0.30;0.30;;;;;;;14.82;100.00;99163.81;4988643;28;20038;-79
2022/06/24 09:06:47;;;;;;;0.30;0.30;;;;;;;14.83;100.00;99170.03;4972087;28;20039;-80
2022/06/24 09:09:24;;;;;;;0.30;0.30;;;;;;;14.80;100.00;99163.22;4988510;28;20036;-80
2022/06/24 09:11:57;;;;;;;0.40;0.40;;;;;;;14.79;100.00;99164.28;5001959;28;20026;-78
2022/06/24 09:14:43;;;;;;;0.30;0.30;;;;;;;14.71;100.00;99143.84;4958045;28;20042;-79
2022/06/24 09:17:12;;;;;;;0.30;0.30;;;;;;;14.73;100.00;99152.53;4973834;28;20045;-80
2022/06/24 09:19:38;;;;;;;0.30;0.30;;;;;;;14.70;100.00;99155.72;4970071;28;20105;-79
2022/06/24 09:22:07;;;;;;;0.30;0.30;;;;;;;14.68;100.00;99151.63;4968694;28;20093;-80
2022/06/24 09:24:53;;;;;;;0.30;0.30;;;;;;;14.69;100.00;99145.97;4972464;28;20046;-78
2022/06/24 09:27:20;;;;;;;0.30;0.30;;;;;;;14.60;100.00;99146.59;4971089;28;20186;-77
2022/06/24 09:29:48;;;;;;;0.30;0.30;;;;;;;14.57;100.00;99136.25;4972549;28;20042;-77
2022/06/24 09:32:14;;;;;;;0.30;0.30;;;;;;;14.59;100.00;99142.25;4962981;28;20030;-79
2022/06/24 09:35:01;;;;;;;0.30;0.30;;;;;;;14.53;100.00;99138.63;4967658;28;20470;-77
2022/06/24 09:37:42;;;;;;;0.30;0.30;;;;;;;14.49;100.00;99134.72;4955749;28;20092;-79
2022/06/24 09:40:23;;;;;;;0.30;0.30;;;;;;;14.57;100.00;99131.66;4958415;28;20126;-79
2022/06/24 09:42:59;;;;;;;0.30;0.30;;;;;;;14.61;100.00;99129.31;4979815;28;20033;-79
2022/06/24 09:45:51;;;;;;;0.30;0.30;;;;;;;14.61;100.00;99129.31;4988727;28;20030;-76
2022/06/24 09:48:32;;;;;;;0.40;0.40;;;;;;;14.66;100.00;99119.41;4968797;28;20146;-78
2022/06/24 09:50:59;;;;;;;0.35;0.35;;;;;;;14.68;100.00;99121.84;4971352;28;20480;-80
2022/06/24 09:53:26;;;;;;;0.30;0.30;;;;;;;14.61;100.00;99113.09;4957768;28;20034;-78
2022/06/24 09:55:56;;;;;;;0.40;0.40;;;;;;;14.72;100.00;99117.63;4958056;28;20542;-78
2022/06/24 09:58:29;;;;;;;0.30;0.30;;;;;;;14.75;100.00;99122.53;4955833;28;20392;-78
2022/06/24 10:00:56;;;;;;;0.45;0.45;;;;;;;14.77;100.00;99117.72;4991610;28;20087;-77
2022/06/24 10:03:22;;;;;;;0.30;0.30;;;;;;;14.73;100.00;99108.41;4961741;28;20046;-79
2022/06/24 10:05:49;;;;;;;0.35;0.35;;;;;;;14.72;100.00;99109.50;4967675;28;20109;-78
2022/06/24 10:08:16;;;;;;;0.30;0.30;;;;;;;14.72;100.00;99102.19;4979803;28;20440;-78
2022/06/24 10:10:48;;;;;;;0.30;0.30;;;;;;;14.79;100.00;99107.47;4989093;28;20113;-76
2022/06/24 10:13:22;;;;;;;0.30;0.30;;;;;;;14.86;100.00;99102.69;4979117;28;20061;-78
2022/06/24 10:15:55;;;;;;;0.40;0.40;;;;;;;14.98;100.00;99093.69;4969343;28;20041;-77
2022/06/24 10:18:26;;;;;;;0.30;0.30;;;;;;;15.08;100.00;99092.00;4971619;28;20033;-77
2022/06/24 10:20:58;;;;;;;0.32;0.32;;;;;;;15.10;100.00;99086.31;4959257;28;20046;-79
2022/06/24 10:23:50;;;;;;;0.38;0.38;;;;;;;15.20;100.00;99088.38;4986976;28;20447;-77
2022/06/24 10:26:16;;;;;;;0.30;0.30;;;;;;;15.19;100.00;99090.25;4968447;28;20038;-78
2022/06/24 10:29:14;;;;;;;0.30;0.30;;;;;;;15.04;100.00;99087.31;4986791;28;20034;-78
2022/06/24 10:31:49;;;;;;;0.40;0.40;;;;;;;14.97;100.00;99092.88;4968744;28;20069;-79
2022/06/24 10:34:20;;;;;;;0.30;0.30;;;;;;;14.89;100.00;99080.56;4982694;28;20038;-79
2022/06/24 10:36:47;;;;;;;0.30;0.30;;;;;;;14.82;100.00;99079.91;4986704;28;20465;-78
2022/06/24 10:39:18;;;;;;;0.43;0.43;;;;;;;14.73;100.00;99081.38;4988817;28;20110;-77
2022/06/24 10:41:58;;;;;;;0.30;0.30;;;;;;;14.72;100.00;99069.72;4946220;28;20519;-77
2022/06/24 10:44:27;;;;;;;0.30;0.30;;;;;;;14.69;100.00;99064.81;4986574;28;20085;-78
2022/06/24 10:47:05;;;;;;;0.30;0.30;;;;;;;14.75;100.00;99065.72;4974642;28;20080;-77
2022/06/24 10:52:46;;;;;;;0.30;0.30;;;;;;;15.20;100.00;99061.28;4990849;28;20117;-77
2022/06/24 10:55:20;;;;;;;0.30;0.30;;;;;;;15.41;100.00;99055.13;4971550;28;20045;-76
2022/06/24 10:57:46;;;;;;;;;;;;;;;15.49;100.00;99045.75;4989208;28;20033;-76
2022/06/24 11:00:16;;;;;;;0.40;0.40;;;;;;;15.64;100.00;99050.53;4972854;28;20378;-77
2022/06/24 11:02:45;;;;;;;0.30;0.30;;;;;;;15.70;100.00;99049.56;4957715;28;20038;-77
2022/06/24 11:05:37;;;;;;;0.30;0.30;;;;;;;15.68;100.00;99057.09;4990879;28;20372;-76
2022/06/24 11:08:03;;;;;;;;;;;;;;;15.65;100.00;99050.28;4946545;28;20057;-76
2022/06/24 11:10:31;;;;;;;0.30;0.30;;;;;;;15.77;100.00;99053.75;4958471;28;19929;-76
2022/06/24 11:12:59;;;;;;;0.30;0.30;;;;;;;15.98;100.00;99048.56;4970563;28;20476;-76
2022/06/24 11:15:40;;;;;;;0.30;0.30;;;;;;;16.09;100.00;99044.91;4953132;28;20037;-77
2022/06/24 11:18:17;;;;;;;0.30;0.30;;;;;;;16.18;100.00;99042.56;4969444;28;20085;-76
2022/06/24 11:20:46;;;;;;;0.32;0.32;;;;;;;16.24;100.00;99039.63;4972908;28;20030;-78
2022/06/24 11:23:14;;;;;;;0.30;0.30;;;;;;;16.19;100.00;99026.00;4972909;28;20072;-76
2022/06/24 11:26:03;;;;;;;0.40;0.40;;;;;;;16.14;100.00;99033.28;4954885;28;20037;-77
2022/06/24 11:28:41;;;;;;;0.40;0.40;;;;;;;16.08;100.00;99031.59;4982653;28;20026;-75
2022/06/24 11:31:21;;;;;;;0.30;0.30;;;;;;;15.83;100.00;99005.84;4970790;28;20038;-77
2022/06/24 11:33:49;;;;;;;0.30;0.30;;;;;;;15.52;100.00;99020.84;4987026;28;20046;-75
2022/06/24 11:36:15;;;;;;;0.30;0.30;;;;;;;15.24;100.00;99010.97;4984666;28;20030;-78
2022/06/24 11:38:57;;;;;;;0.30;0.30;;;;;;;15.09;100.00;99007.00;4989002;28;20093;-78
2022/06/24 11:41:32;;;;;;;0.30;0.30;;;;;;;15.37;100.00;99008.75;4983179;28;20117;-76
2022/06/24 11:43:58;;;;;;;0.40;0.40;;;;;;;15.58;100.00;99006.31;4950195;28;20546;-80